sensor_id;sensor_type;location;lat;lon;timestamp;pressure;altitude;pressure_sealevel;temperature
16956;BMP180;8594;52.052;8.354;2022-07-09T00:01:10;101821.00;;;22.20
16956;BMP180;8594;52.052;8.354;2022-07-09T00:03:37;101806.00;;;22.10
16956;BMP180;8594;52.052;8.354;2022-07-09T00:06:04;101805.00;;;22.10
16956;BMP180;8594;52.052;8.354;2022-07-09T00:08:31;101809.00;;;22.30
16956;BMP180;8594;52.052;8.354;2022-07-09T00:10:58;101799.00;;;22.10
16956;BMP180;8594;52.052;8.354;2022-07-09T00:13:25;101805.00;;;22.00
16956;BMP180;8594;52.052;8.354;2022-07-09T00:15:53;101805.00;;;21.80
16956;BMP180;8594;52.052;8.354;2022-07-09T00:18:20;101802.00;;;22.10
16956;BMP180;8594;52.052;8.354;2022-07-09T00:20:47;101806.00;;;22.10
16956;BMP180;8594;52.052;8.354;2022-07-09T00:23:14;101802.00;;;22.10
16956;BMP180;8594;52.052;8.354;2022-07-09T00:25:40;101807.00;;;22.00
16956;BMP180;8594;52.052;8.354;2022-07-09T00:28:07;101804.00;;;22.00
16956;BMP180;8594;52.052;8.354;2022-07-09T00:30:34;101798.00;;;21.60
16956;BMP180;8594;52.052;8.354;2022-07-09T00:33:03;101789.00;;;21.70
16956;BMP180;8594;52.052;8.354;2022-07-09T00:35:30;101786.00;;;21.70
16956;BMP180;8594;52.052;8.354;2022-07-09T00:37:57;101792.00;;;22.00
16956;BMP180;8594;52.052;8.354;2022-07-09T00:40:23;101784.00;;;22.00
16956;BMP180;8594;52.052;8.354;2022-07-09T00:42:50;101783.00;;;21.50
16956;BMP180;8594;52.052;8.354;2022-07-09T00:45:17;101784.00;;;21.30
16956;BMP180;8594;52.052;8.354;2022-07-09T00:47:44;101782.00;;;21.50
16956;BMP180;8594;52.052;8.354;2022-07-09T00:50:13;101782.00;;;21.70
16956;BMP180;8594;52.052;8.354;2022-07-09T00:52:41;101783.00;;;21.60
16956;BMP180;8594;52.052;8.354;2022-07-09T00:55:09;101789.00;;;21.80
16956;BMP180;8594;52.052;8.354;2022-07-09T00:57:37;101784.00;;;21.70
16956;BMP180;8594;52.052;8.354;2022-07-09T01:00:06;101781.00;;;21.70
16956;BMP180;8594;52.052;8.354;2022-07-09T01:02:34;101775.00;;;21.60
16956;BMP180;8594;52.052;8.354;2022-07-09T01:05:01;101781.00;;;21.40
16956;BMP180;8594;52.052;8.354;2022-07-09T01:07:29;101774.00;;;21.60
16956;BMP180;8594;52.052;8.354;2022-07-09T01:09:56;101775.00;;;21.50
16956;BMP180;8594;52.052;8.354;2022-07-09T01:12:23;101774.00;;;21.30
16956;BMP180;8594;52.052;8.354;2022-07-09T01:14:50;101771.00;;;21.60
16956;BMP180;8594;52.052;8.354;2022-07-09T01:17:17;101777.00;;;21.30
16956;BMP180;8594;52.052;8.354;2022-07-09T01:19:44;101771.00;;;21.50
16956;BMP180;8594;52.052;8.354;2022-07-09T01:22:12;101774.00;;;21.20
16956;BMP180;8594;52.052;8.354;2022-07-09T01:24:39;101768.00;;;21.00
16956;BMP180;8594;52.052;8.354;2022-07-09T01:27:07;101765.00;;;20.90
16956;BMP180;8594;52.052;8.354;2022-07-09T01:29:34;101767.00;;;20.80
16956;BMP180;8594;52.052;8.354;2022-07-09T01:32:01;101762.00;;;21.00
16956;BMP180;8594;52.052;8.354;2022-07-09T01:34:27;101764.00;;;21.20
16956;BMP180;8594;52.052;8.354;2022-07-09T01:36:54;101760.00;;;21.10
16956;BMP180;8594;52.052;8.354;2022-07-09T01:39:22;101764.00;;;21.50
16956;BMP180;8594;52.052;8.354;2022-07-09T01:41:49;101756.00;;;21.40
16956;BMP180;8594;52.052;8.354;2022-07-09T01:44:16;101751.00;;;21.20
16956;BMP180;8594;52.052;8.354;2022-07-09T01:46:43;101749.00;;;21.00
16956;BMP180;8594;52.052;8.354;2022-07-09T01:49:10;101739.00;;;21.20
16956;BMP180;8594;52.052;8.354;2022-07-09T01:51:36;101739.00;;;21.40
16956;BMP180;8594;52.052;8.354;2022-07-09T01:54:03;101745.00;;;21.40
16956;BMP180;8594;52.052;8.354;2022-07-09T01:56:32;101741.00;;;21.30
16956;BMP180;8594;52.052;8.354;2022-07-09T01:59:00;101739.00;;;21.30
16956;BMP180;8594;52.052;8.354;2022-07-09T02:01:27;101734.00;;;21.10
16956;BMP180;8594;52.052;8.354;2022-07-09T02:03:56;101730.00;;;21.20
16956;BMP180;8594;52.052;8.354;2022-07-09T02:06:23;101724.00;;;21.30
16956;BMP180;8594;52.052;8.354;2022-07-09T02:08:50;101727.00;;;21.20
16956;BMP180;8594;52.052;8.354;2022-07-09T02:11:17;101719.00;;;21.20
16956;BMP180;8594;52.052;8.354;2022-07-09T02:13:46;101725.00;;;21.40
16956;BMP180;8594;52.052;8.354;2022-07-09T02:16:12;101722.00;;;21.20
16956;BMP180;8594;52.052;8.354;2022-07-09T02:18:39;101726.00;;;21.20
16956;BMP180;8594;52.052;8.354;2022-07-09T02:21:06;101720.00;;;21.30
16956;BMP180;8594;52.052;8.354;2022-07-09T02:23:33;101720.00;;;20.90
16956;BMP180;8594;52.052;8.354;2022-07-09T02:26:00;101714.00;;;21.20
16956;BMP180;8594;52.052;8.354;2022-07-09T02:28:27;101723.00;;;21.20
16956;BMP180;8594;52.052;8.354;2022-07-09T02:30:55;101723.00;;;21.30
16956;BMP180;8594;52.052;8.354;2022-07-09T02:33:23;101725.00;;;21.40
16956;BMP180;8594;52.052;8.354;2022-07-09T02:35:50;101728.00;;;21.40
16956;BMP180;8594;52.052;8.354;2022-07-09T02:38:17;101713.00;;;21.60
16956;BMP180;8594;52.052;8.354;2022-07-09T02:40:46;101709.00;;;21.20
16956;BMP180;8594;52.052;8.354;2022-07-09T02:43:13;101716.00;;;21.10
16956;BMP180;8594;52.052;8.354;2022-07-09T02:45:41;101710.00;;;20.90
16956;BMP180;8594;52.052;8.354;2022-07-09T02:48:09;101711.00;;;21.10
16956;BMP180;8594;52.052;8.354;2022-07-09T02:50:35;101717.00;;;21.20
16956;BMP180;8594;52.052;8.354;2022-07-09T02:53:02;101713.00;;;21.10
16956;BMP180;8594;52.052;8.354;2022-07-09T02:55:30;101719.00;;;21.20
16956;BMP180;8594;52.052;8.354;2022-07-09T02:57:56;101725.00;;;21.10
16956;BMP180;8594;52.052;8.354;2022-07-09T03:00:23;101726.00;;;20.90
16956;BMP180;8594;52.052;8.354;2022-07-09T03:02:50;101722.00;;;20.90
16956;BMP180;8594;52.052;8.354;2022-07-09T03:05:18;101723.00;;;21.10
16956;BMP180;8594;52.052;8.354;2022-07-09T03:07:45;101722.00;;;21.20
16956;BMP180;8594;52.052;8.354;2022-07-09T03:10:12;101722.00;;;21.40
16956;BMP180;8594;52.052;8.354;2022-07-09T03:12:39;101714.00;;;21.50
16956;BMP180;8594;52.052;8.354;2022-07-09T03:15:07;101714.00;;;21.10
16956;BMP180;8594;52.052;8.354;2022-07-09T03:17:34;101718.00;;;21.00
16956;BMP180;8594;52.052;8.354;2022-07-09T03:20:01;101721.00;;;20.80
16956;BMP180;8594;52.052;8.354;2022-07-09T03:22:29;101713.00;;;20.70
16956;BMP180;8594;52.052;8.354;2022-07-09T03:24:56;101717.00;;;20.70
16956;BMP180;8594;52.052;8.354;2022-07-09T03:27:23;101720.00;;;20.70
16956;BMP180;8594;52.052;8.354;2022-07-09T03:29:49;101723.00;;;21.00
16956;BMP180;8594;52.052;8.354;2022-07-09T03:32:16;101723.00;;;20.90
16956;BMP180;8594;52.052;8.354;2022-07-09T03:34:43;101721.00;;;20.90
16956;BMP180;8594;52.052;8.354;2022-07-09T03:37:10;101708.00;;;20.70
16956;BMP180;8594;52.052;8.354;2022-07-09T03:39:39;101701.00;;;20.80
16956;BMP180;8594;52.052;8.354;2022-07-09T03:42:06;101707.00;;;21.00
16956;BMP180;8594;52.052;8.354;2022-07-09T03:44:33;101696.00;;;20.70
16956;BMP180;8594;52.052;8.354;2022-07-09T03:47:00;101697.00;;;20.70
16956;BMP180;8594;52.052;8.354;2022-07-09T03:49:27;101691.00;;;20.70
16956;BMP180;8594;52.052;8.354;2022-07-09T03:51:54;101690.00;;;20.80
16956;BMP180;8594;52.052;8.354;2022-07-09T03:54:21;101701.00;;;20.90
16956;BMP180;8594;52.052;8.354;2022-07-09T03:56:49;101700.00;;;21.00
16956;BMP180;8594;52.052;8.354;2022-07-09T03:59:16;101685.00;;;21.00
16956;BMP180;8594;52.052;8.354;2022-07-09T04:01:43;101699.00;;;20.80
16956;BMP180;8594;52.052;8.354;2022-07-09T04:04:10;101687.00;;;20.90
16956;BMP180;8594;52.052;8.354;2022-07-09T04:06:37;101685.00;;;20.80
16956;BMP180;8594;52.052;8.354;2022-07-09T04:09:04;101689.00;;;20.80
16956;BMP180;8594;52.052;8.354;2022-07-09T04:11:31;101681.00;;;20.60
16956;BMP180;8594;52.052;8.354;2022-07-09T04:14:00;101684.00;;;20.50
16956;BMP180;8594;52.052;8.354;2022-07-09T04:16:27;101688.00;;;20.60
16956;BMP180;8594;52.052;8.354;2022-07-09T04:18:55;101686.00;;;20.60
16956;BMP180;8594;52.052;8.354;2022-07-09T04:21:22;101684.00;;;20.70
16956;BMP180;8594;52.052;8.354;2022-07-09T04:23:49;101685.00;;;20.70
16956;BMP180;8594;52.052;8.354;2022-07-09T04:26:17;101688.00;;;20.60
16956;BMP180;8594;52.052;8.354;2022-07-09T04:28:44;101691.00;;;20.50
16956;BMP180;8594;52.052;8.354;2022-07-09T04:31:13;101688.00;;;20.70
16956;BMP180;8594;52.052;8.354;2022-07-09T04:33:41;101687.00;;;20.80
16956;BMP180;8594;52.052;8.354;2022-07-09T04:36:08;101690.00;;;21.00
16956;BMP180;8594;52.052;8.354;2022-07-09T04:38:35;101692.00;;;20.80
16956;BMP180;8594;52.052;8.354;2022-07-09T04:41:02;101694.00;;;20.80
16956;BMP180;8594;52.052;8.354;2022-07-09T04:43:30;101690.00;;;20.70
16956;BMP180;8594;52.052;8.354;2022-07-09T04:45:57;101697.00;;;20.60
16956;BMP180;8594;52.052;8.354;2022-07-09T04:48:25;101689.00;;;21.10
16956;BMP180;8594;52.052;8.354;2022-07-09T04:50:52;101685.00;;;20.90
16956;BMP180;8594;52.052;8.354;2022-07-09T04:53:19;101691.00;;;21.00
16956;BMP180;8594;52.052;8.354;2022-07-09T04:55:46;101687.00;;;21.20
16956;BMP180;8594;52.052;8.354;2022-07-09T04:58:13;101682.00;;;21.30
16956;BMP180;8594;52.052;8.354;2022-07-09T05:00:39;101699.00;;;21.10
16956;BMP180;8594;52.052;8.354;2022-07-09T05:03:07;101695.00;;;21.00
16956;BMP180;8594;52.052;8.354;2022-07-09T05:05:35;101692.00;;;21.60
16956;BMP180;8594;52.052;8.354;2022-07-09T05:08:02;101686.00;;;21.30
16956;BMP180;8594;52.052;8.354;2022-07-09T05:10:29;101686.00;;;21.20
16956;BMP180;8594;52.052;8.354;2022-07-09T05:12:56;101698.00;;;21.00
16956;BMP180;8594;52.052;8.354;2022-07-09T05:15:22;101696.00;;;21.10
16956;BMP180;8594;52.052;8.354;2022-07-09T05:17:49;101700.00;;;20.90
16956;BMP180;8594;52.052;8.354;2022-07-09T05:20:16;101701.00;;;20.70
16956;BMP180;8594;52.052;8.354;2022-07-09T05:22:44;101705.00;;;21.30
16956;BMP180;8594;52.052;8.354;2022-07-09T05:25:11;101705.00;;;21.20
16956;BMP180;8594;52.052;8.354;2022-07-09T05:27:42;101701.00;;;20.90
16956;BMP180;8594;52.052;8.354;2022-07-09T05:30:11;101697.00;;;20.80
16956;BMP180;8594;52.052;8.354;2022-07-09T05:32:39;101696.00;;;20.80
16956;BMP180;8594;52.052;8.354;2022-07-09T05:35:08;101693.00;;;20.80
16956;BMP180;8594;52.052;8.354;2022-07-09T05:37:41;101699.00;;;20.90
16956;BMP180;8594;52.052;8.354;2022-07-09T05:40:12;101700.00;;;20.80
16956;BMP180;8594;52.052;8.354;2022-07-09T05:42:39;101707.00;;;21.10
16956;BMP180;8594;52.052;8.354;2022-07-09T05:45:08;101699.00;;;21.30
16956;BMP180;8594;52.052;8.354;2022-07-09T05:47:35;101696.00;;;21.50
16956;BMP180;8594;52.052;8.354;2022-07-09T05:50:02;101706.00;;;21.30
16956;BMP180;8594;52.052;8.354;2022-07-09T05:52:29;101693.00;;;21.40
16956;BMP180;8594;52.052;8.354;2022-07-09T05:54:56;101689.00;;;21.40
16956;BMP180;8594;52.052;8.354;2022-07-09T05:57:24;101690.00;;;21.50
16956;BMP180;8594;52.052;8.354;2022-07-09T05:59:51;101686.00;;;21.60
16956;BMP180;8594;52.052;8.354;2022-07-09T06:02:18;101688.00;;;21.50
16956;BMP180;8594;52.052;8.354;2022-07-09T06:04:46;101692.00;;;22.00
16956;BMP180;8594;52.052;8.354;2022-07-09T06:07:12;101694.00;;;21.90
16956;BMP180;8594;52.052;8.354;2022-07-09T06:09:39;101695.00;;;21.60
16956;BMP180;8594;52.052;8.354;2022-07-09T06:12:07;101695.00;;;21.30
16956;BMP180;8594;52.052;8.354;2022-07-09T06:14:35;101693.00;;;21.20
16956;BMP180;8594;52.052;8.354;2022-07-09T06:17:03;101693.00;;;21.40
16956;BMP180;8594;52.052;8.354;2022-07-09T06:19:33;101685.00;;;21.50
16956;BMP180;8594;52.052;8.354;2022-07-09T06:22:01;101691.00;;;21.40
16956;BMP180;8594;52.052;8.354;2022-07-09T06:24:28;101681.00;;;21.70
16956;BMP180;8594;52.052;8.354;2022-07-09T06:26:56;101683.00;;;21.60
16956;BMP180;8594;52.052;8.354;2022-07-09T06:29:23;101690.00;;;21.60
16956;BMP180;8594;52.052;8.354;2022-07-09T06:31:51;101700.00;;;21.90
16956;BMP180;8594;52.052;8.354;2022-07-09T06:34:18;101693.00;;;21.80
16956;BMP180;8594;52.052;8.354;2022-07-09T06:36:45;101690.00;;;21.70
16956;BMP180;8594;52.052;8.354;2022-07-09T06:39:12;101682.00;;;21.70
16956;BMP180;8594;52.052;8.354;2022-07-09T06:42:04;101681.00;;;22.30
16956;BMP180;8594;52.052;8.354;2022-07-09T06:44:31;101686.00;;;22.80
16956;BMP180;8594;52.052;8.354;2022-07-09T06:47:00;101684.00;;;22.70
16956;BMP180;8594;52.052;8.354;2022-07-09T06:49:27;101687.00;;;22.90
16956;BMP180;8594;52.052;8.354;2022-07-09T06:51:55;101692.00;;;23.10
16956;BMP180;8594;52.052;8.354;2022-07-09T06:54:22;101679.00;;;22.50
16956;BMP180;8594;52.052;8.354;2022-07-09T06:56:49;101671.00;;;23.80
16956;BMP180;8594;52.052;8.354;2022-07-09T06:59:16;101688.00;;;24.10
16956;BMP180;8594;52.052;8.354;2022-07-09T07:01:44;101684.00;;;24.30
16956;BMP180;8594;52.052;8.354;2022-07-09T07:04:12;101689.00;;;24.50
16956;BMP180;8594;52.052;8.354;2022-07-09T07:06:40;101679.00;;;24.70
16956;BMP180;8594;52.052;8.354;2022-07-09T07:09:07;101688.00;;;24.70
16956;BMP180;8594;52.052;8.354;2022-07-09T07:11:34;101688.00;;;24.90
16956;BMP180;8594;52.052;8.354;2022-07-09T07:14:01;101668.00;;;24.90
16956;BMP180;8594;52.052;8.354;2022-07-09T07:16:28;101684.00;;;24.80
16956;BMP180;8594;52.052;8.354;2022-07-09T07:18:55;101688.00;;;24.60
16956;BMP180;8594;52.052;8.354;2022-07-09T07:21:23;101680.00;;;24.90
16956;BMP180;8594;52.052;8.354;2022-07-09T07:23:50;101683.00;;;24.60
16956;BMP180;8594;52.052;8.354;2022-07-09T07:26:16;101687.00;;;24.80
16956;BMP180;8594;52.052;8.354;2022-07-09T07:28:43;101688.00;;;24.40
16956;BMP180;8594;52.052;8.354;2022-07-09T07:31:10;101683.00;;;25.20
16956;BMP180;8594;52.052;8.354;2022-07-09T07:33:37;101661.00;;;26.10
16956;BMP180;8594;52.052;8.354;2022-07-09T07:36:05;101659.00;;;26.20
16956;BMP180;8594;52.052;8.354;2022-07-09T07:38:34;101666.00;;;26.70
16956;BMP180;8594;52.052;8.354;2022-07-09T07:41:01;101672.00;;;27.20
16956;BMP180;8594;52.052;8.354;2022-07-09T07:43:28;101663.00;;;26.90
16956;BMP180;8594;52.052;8.354;2022-07-09T07:45:55;101665.00;;;28.40
16956;BMP180;8594;52.052;8.354;2022-07-09T07:48:21;101658.00;;;28.00
16956;BMP180;8594;52.052;8.354;2022-07-09T07:50:48;101666.00;;;28.30
16956;BMP180;8594;52.052;8.354;2022-07-09T07:53:15;101664.00;;;27.40
16956;BMP180;8594;52.052;8.354;2022-07-09T07:55:43;101653.00;;;28.30
16956;BMP180;8594;52.052;8.354;2022-07-09T07:58:10;101652.00;;;27.70
16956;BMP180;8594;52.052;8.354;2022-07-09T08:00:37;101646.00;;;28.20
16956;BMP180;8594;52.052;8.354;2022-07-09T08:03:04;101654.00;;;28.40
16956;BMP180;8594;52.052;8.354;2022-07-09T08:05:31;101652.00;;;28.80
16956;BMP180;8594;52.052;8.354;2022-07-09T08:07:58;101661.00;;;27.60
16956;BMP180;8594;52.052;8.354;2022-07-09T08:10:25;101658.00;;;27.70
16956;BMP180;8594;52.052;8.354;2022-07-09T08:12:53;101660.00;;;27.90
16956;BMP180;8594;52.052;8.354;2022-07-09T08:15:20;101662.00;;;27.40
16956;BMP180;8594;52.052;8.354;2022-07-09T08:17:46;101669.00;;;27.20
16956;BMP180;8594;52.052;8.354;2022-07-09T08:20:13;101664.00;;;26.20
16956;BMP180;8594;52.052;8.354;2022-07-09T08:22:40;101664.00;;;26.70
16956;BMP180;8594;52.052;8.354;2022-07-09T08:25:07;101662.00;;;26.20
16956;BMP180;8594;52.052;8.354;2022-07-09T08:27:34;101661.00;;;26.30
16956;BMP180;8594;52.052;8.354;2022-07-09T08:30:03;101668.00;;;26.40
16956;BMP180;8594;52.052;8.354;2022-07-09T08:32:30;101661.00;;;26.30
16956;BMP180;8594;52.052;8.354;2022-07-09T08:34:57;101659.00;;;26.30
16956;BMP180;8594;52.052;8.354;2022-07-09T08:37:24;101656.00;;;26.00
16956;BMP180;8594;52.052;8.354;2022-07-09T08:39:51;101658.00;;;25.90
16956;BMP180;8594;52.052;8.354;2022-07-09T08:42:18;101653.00;;;25.70
16956;BMP180;8594;52.052;8.354;2022-07-09T08:44:48;101650.00;;;26.30
16956;BMP180;8594;52.052;8.354;2022-07-09T08:47:16;101640.00;;;26.20
16956;BMP180;8594;52.052;8.354;2022-07-09T08:49:46;101650.00;;;25.50
16956;BMP180;8594;52.052;8.354;2022-07-09T08:52:15;101647.00;;;26.00
16956;BMP180;8594;52.052;8.354;2022-07-09T08:54:44;101636.00;;;25.60
16956;BMP180;8594;52.052;8.354;2022-07-09T08:57:10;101648.00;;;25.50
16956;BMP180;8594;52.052;8.354;2022-07-09T08:59:37;101646.00;;;25.10
16956;BMP180;8594;52.052;8.354;2022-07-09T09:02:05;101645.00;;;25.30
16956;BMP180;8594;52.052;8.354;2022-07-09T09:04:35;101644.00;;;25.50
16956;BMP180;8594;52.052;8.354;2022-07-09T09:07:15;101644.00;;;25.40
16956;BMP180;8594;52.052;8.354;2022-07-09T09:09:43;101648.00;;;25.10
16956;BMP180;8594;52.052;8.354;2022-07-09T09:12:11;101643.00;;;25.30
16956;BMP180;8594;52.052;8.354;2022-07-09T09:14:39;101646.00;;;25.00
16956;BMP180;8594;52.052;8.354;2022-07-09T09:17:07;101639.00;;;25.30
16956;BMP180;8594;52.052;8.354;2022-07-09T09:19:36;101635.00;;;25.20
16956;BMP180;8594;52.052;8.354;2022-07-09T09:22:04;101632.00;;;25.20
16956;BMP180;8594;52.052;8.354;2022-07-09T09:24:31;101642.00;;;24.70
16956;BMP180;8594;52.052;8.354;2022-07-09T09:26:58;101643.00;;;25.00
16956;BMP180;8594;52.052;8.354;2022-07-09T09:29:25;101649.00;;;25.20
16956;BMP180;8594;52.052;8.354;2022-07-09T09:31:53;101647.00;;;25.30
16956;BMP180;8594;52.052;8.354;2022-07-09T09:34:22;101642.00;;;25.00
16956;BMP180;8594;52.052;8.354;2022-07-09T09:36:51;101647.00;;;25.40
16956;BMP180;8594;52.052;8.354;2022-07-09T09:39:22;101653.00;;;24.80
16956;BMP180;8594;52.052;8.354;2022-07-09T09:41:51;101652.00;;;24.60
16956;BMP180;8594;52.052;8.354;2022-07-09T09:44:20;101653.00;;;24.20
16956;BMP180;8594;52.052;8.354;2022-07-09T09:46:49;101661.00;;;24.10
16956;BMP180;8594;52.052;8.354;2022-07-09T09:49:16;101667.00;;;24.40
16956;BMP180;8594;52.052;8.354;2022-07-09T09:51:51;101664.00;;;24.50
16956;BMP180;8594;52.052;8.354;2022-07-09T09:54:20;101654.00;;;24.50
16956;BMP180;8594;52.052;8.354;2022-07-09T09:56:48;101639.00;;;25.00
16956;BMP180;8594;52.052;8.354;2022-07-09T09:59:16;101638.00;;;25.00
16956;BMP180;8594;52.052;8.354;2022-07-09T10:01:44;101634.00;;;25.50
16956;BMP180;8594;52.052;8.354;2022-07-09T10:04:13;101638.00;;;26.00
16956;BMP180;8594;52.052;8.354;2022-07-09T10:06:41;101639.00;;;25.50
16956;BMP180;8594;52.052;8.354;2022-07-09T10:09:14;101636.00;;;25.50
16956;BMP180;8594;52.052;8.354;2022-07-09T10:11:42;101623.00;;;25.80
16956;BMP180;8594;52.052;8.354;2022-07-09T10:14:16;101619.00;;;25.80
16956;BMP180;8594;52.052;8.354;2022-07-09T10:16:43;101612.00;;;26.50
16956;BMP180;8594;52.052;8.354;2022-07-09T10:19:21;101622.00;;;26.40
16956;BMP180;8594;52.052;8.354;2022-07-09T10:21:53;101612.00;;;26.50
16956;BMP180;8594;52.052;8.354;2022-07-09T10:24:26;101619.00;;;26.50
16956;BMP180;8594;52.052;8.354;2022-07-09T10:27:03;101621.00;;;26.10
16956;BMP180;8594;52.052;8.354;2022-07-09T10:29:32;101622.00;;;26.10
16956;BMP180;8594;52.052;8.354;2022-07-09T10:31:59;101605.00;;;26.10
16956;BMP180;8594;52.052;8.354;2022-07-09T10:34:53;101615.00;;;26.30
16956;BMP180;8594;52.052;8.354;2022-07-09T10:37:34;101606.00;;;26.20
16956;BMP180;8594;52.052;8.354;2022-07-09T10:40:09;101603.00;;;25.70
16956;BMP180;8594;52.052;8.354;2022-07-09T10:42:37;101605.00;;;26.40
16956;BMP180;8594;52.052;8.354;2022-07-09T10:45:22;101582.00;;;26.70
16956;BMP180;8594;52.052;8.354;2022-07-09T10:47:58;101585.00;;;26.90
16956;BMP180;8594;52.052;8.354;2022-07-09T10:50:28;101588.00;;;26.10
16956;BMP180;8594;52.052;8.354;2022-07-09T10:52:56;101583.00;;;26.20
16956;BMP180;8594;52.052;8.354;2022-07-09T10:55:27;101582.00;;;26.50
16956;BMP180;8594;52.052;8.354;2022-07-09T10:57:54;101570.00;;;26.80
16956;BMP180;8594;52.052;8.354;2022-07-09T11:00:23;101571.00;;;27.30
16956;BMP180;8594;52.052;8.354;2022-07-09T11:02:58;101570.00;;;27.20
16956;BMP180;8594;52.052;8.354;2022-07-09T11:05:26;101568.00;;;27.50
16956;BMP180;8594;52.052;8.354;2022-07-09T11:07:56;101571.00;;;27.70
16956;BMP180;8594;52.052;8.354;2022-07-09T11:10:24;101570.00;;;26.50
16956;BMP180;8594;52.052;8.354;2022-07-09T11:12:53;101564.00;;;26.90
16956;BMP180;8594;52.052;8.354;2022-07-09T11:15:21;101567.00;;;27.40
16956;BMP180;8594;52.052;8.354;2022-07-09T11:17:59;101547.00;;;27.50
16956;BMP180;8594;52.052;8.354;2022-07-09T11:20:27;101549.00;;;27.60
16956;BMP180;8594;52.052;8.354;2022-07-09T11:22:55;101561.00;;;27.90
16956;BMP180;8594;52.052;8.354;2022-07-09T11:25:25;101564.00;;;27.60
16956;BMP180;8594;52.052;8.354;2022-07-09T11:27:53;101552.00;;;27.90
16956;BMP180;8594;52.052;8.354;2022-07-09T11:30:20;101560.00;;;28.20
16956;BMP180;8594;52.052;8.354;2022-07-09T11:32:49;101546.00;;;27.60
16956;BMP180;8594;52.052;8.354;2022-07-09T11:35:27;101532.00;;;28.30
16956;BMP180;8594;52.052;8.354;2022-07-09T11:37:56;101543.00;;;28.70
16956;BMP180;8594;52.052;8.354;2022-07-09T11:40:25;101538.00;;;28.70
16956;BMP180;8594;52.052;8.354;2022-07-09T11:42:52;101541.00;;;27.90
16956;BMP180;8594;52.052;8.354;2022-07-09T11:45:21;101532.00;;;28.80
16956;BMP180;8594;52.052;8.354;2022-07-09T11:47:49;101542.00;;;28.50
16956;BMP180;8594;52.052;8.354;2022-07-09T11:50:18;101540.00;;;27.90
16956;BMP180;8594;52.052;8.354;2022-07-09T11:52:47;101549.00;;;28.10
16956;BMP180;8594;52.052;8.354;2022-07-09T11:55:17;101524.00;;;28.10
16956;BMP180;8594;52.052;8.354;2022-07-09T11:57:56;101540.00;;;27.70
16956;BMP180;8594;52.052;8.354;2022-07-09T12:00:25;101525.00;;;28.40
16956;BMP180;8594;52.052;8.354;2022-07-09T12:02:53;101524.00;;;28.90
16956;BMP180;8594;52.052;8.354;2022-07-09T12:05:26;101534.00;;;28.80
16956;BMP180;8594;52.052;8.354;2022-07-09T12:07:57;101527.00;;;27.90
16956;BMP180;8594;52.052;8.354;2022-07-09T12:10:30;101525.00;;;27.80
16956;BMP180;8594;52.052;8.354;2022-07-09T12:13:00;101528.00;;;27.50
16956;BMP180;8594;52.052;8.354;2022-07-09T12:15:28;101508.00;;;28.00
16956;BMP180;8594;52.052;8.354;2022-07-09T12:17:57;101522.00;;;27.50
16956;BMP180;8594;52.052;8.354;2022-07-09T12:20:27;101513.00;;;28.30
16956;BMP180;8594;52.052;8.354;2022-07-09T12:22:54;101515.00;;;27.60
16956;BMP180;8594;52.052;8.354;2022-07-09T12:25:21;101506.00;;;28.20
16956;BMP180;8594;52.052;8.354;2022-07-09T12:27:48;101512.00;;;28.10
16956;BMP180;8594;52.052;8.354;2022-07-09T12:30:17;101507.00;;;28.20
16956;BMP180;8594;52.052;8.354;2022-07-09T12:32:46;101499.00;;;28.30
16956;BMP180;8594;52.052;8.354;2022-07-09T12:35:13;101502.00;;;28.00
16956;BMP180;8594;52.052;8.354;2022-07-09T12:37:41;101499.00;;;27.90
16956;BMP180;8594;52.052;8.354;2022-07-09T12:40:10;101492.00;;;28.00
16956;BMP180;8594;52.052;8.354;2022-07-09T12:42:37;101498.00;;;27.70
16956;BMP180;8594;52.052;8.354;2022-07-09T12:45:06;101492.00;;;28.00
16956;BMP180;8594;52.052;8.354;2022-07-09T12:47:34;101490.00;;;28.40
16956;BMP180;8594;52.052;8.354;2022-07-09T12:50:01;101495.00;;;28.60
16956;BMP180;8594;52.052;8.354;2022-07-09T12:52:30;101489.00;;;28.10
16956;BMP180;8594;52.052;8.354;2022-07-09T12:54:58;101491.00;;;28.40
16956;BMP180;8594;52.052;8.354;2022-07-09T12:57:26;101480.00;;;27.90
16956;BMP180;8594;52.052;8.354;2022-07-09T12:59:53;101481.00;;;27.70
16956;BMP180;8594;52.052;8.354;2022-07-09T13:02:20;101490.00;;;27.70
16956;BMP180;8594;52.052;8.354;2022-07-09T13:04:48;101479.00;;;27.90
16956;BMP180;8594;52.052;8.354;2022-07-09T13:07:15;101479.00;;;27.80
16956;BMP180;8594;52.052;8.354;2022-07-09T13:09:42;101490.00;;;27.10
16956;BMP180;8594;52.052;8.354;2022-07-09T13:12:09;101491.00;;;27.70
16956;BMP180;8594;52.052;8.354;2022-07-09T13:14:36;101484.00;;;27.40
16956;BMP180;8594;52.052;8.354;2022-07-09T13:17:03;101495.00;;;27.20
16956;BMP180;8594;52.052;8.354;2022-07-09T13:19:34;101490.00;;;27.10
16956;BMP180;8594;52.052;8.354;2022-07-09T13:22:03;101479.00;;;26.80
16956;BMP180;8594;52.052;8.354;2022-07-09T13:24:30;101472.00;;;26.40
16956;BMP180;8594;52.052;8.354;2022-07-09T13:26:57;101478.00;;;26.60
16956;BMP180;8594;52.052;8.354;2022-07-09T13:29:24;101481.00;;;26.70
16956;BMP180;8594;52.052;8.354;2022-07-09T13:31:51;101473.00;;;27.00
16956;BMP180;8594;52.052;8.354;2022-07-09T13:34:18;101486.00;;;26.90
16956;BMP180;8594;52.052;8.354;2022-07-09T13:36:45;101479.00;;;27.20
16956;BMP180;8594;52.052;8.354;2022-07-09T13:39:13;101475.00;;;26.70
16956;BMP180;8594;52.052;8.354;2022-07-09T13:41:40;101472.00;;;26.40
16956;BMP180;8594;52.052;8.354;2022-07-09T13:44:07;101477.00;;;26.50
16956;BMP180;8594;52.052;8.354;2022-07-09T13:46:34;101462.00;;;27.00
16956;BMP180;8594;52.052;8.354;2022-07-09T13:49:01;101466.00;;;27.00
16956;BMP180;8594;52.052;8.354;2022-07-09T13:51:28;101473.00;;;27.70
16956;BMP180;8594;52.052;8.354;2022-07-09T13:53:55;101469.00;;;27.50
16956;BMP180;8594;52.052;8.354;2022-07-09T13:56:23;101467.00;;;26.90
16956;BMP180;8594;52.052;8.354;2022-07-09T13:58:50;101471.00;;;26.90
16956;BMP180;8594;52.052;8.354;2022-07-09T14:01:17;101459.00;;;27.40
16956;BMP180;8594;52.052;8.354;2022-07-09T14:03:46;101463.00;;;27.80
16956;BMP180;8594;52.052;8.354;2022-07-09T14:06:13;101455.00;;;27.80
16956;BMP180;8594;52.052;8.354;2022-07-09T14:08:40;101465.00;;;28.30
16956;BMP180;8594;52.052;8.354;2022-07-09T14:11:07;101461.00;;;27.20
16956;BMP180;8594;52.052;8.354;2022-07-09T14:13:35;101458.00;;;27.20